createdAt,value
2019-02-11T00:00:32.860Z,1.90
2019-02-11T00:01:37.807Z,3.85
2019-02-11T00:02:15.994Z,1.90
2019-02-11T00:02:49.836Z,1.90
2019-02-11T00:03:23.877Z,2.27
2019-02-11T00:04:00.119Z,2.45
2019-02-11T00:04:33.898Z,3.12
2019-02-11T00:05:07.407Z,1.92
2019-02-11T00:05:42.894Z,2.20
2019-02-11T00:06:19.512Z,2.58
2019-02-11T00:06:53.619Z,2.00
2019-02-11T00:07:29.011Z,2.20
2019-02-11T00:08:02.616Z,2.77
2019-02-11T00:08:36.513Z,2.22
2019-02-11T00:09:12.582Z,2.20
2019-02-11T00:09:47.374Z,2.45
2019-02-11T00:10:24.679Z,2.35
2019-02-11T00:11:00.881Z,1.65
2019-02-11T00:11:34.677Z,1.90
2019-02-11T00:12:08.357Z,1.70
2019-02-11T00:12:42.026Z,1.40
2019-02-11T00:13:15.819Z,1.72
2019-02-11T00:13:49.707Z,2.30
2019-02-11T00:14:23.562Z,1.57
2019-02-11T00:14:57.293Z,2.37
2019-02-11T00:15:33.057Z,1.85
2019-02-11T00:16:07.817Z,3.27
2019-02-11T00:16:41.682Z,1.90
2019-02-11T00:17:15.893Z,1.92
2019-02-11T00:17:49.490Z,1.87
2019-02-11T00:18:24.977Z,2.10
2019-02-11T00:18:58.542Z,1.95
2019-02-11T00:19:34.613Z,2.25
2019-02-11T00:20:08.220Z,2.05
2019-02-11T00:20:41.811Z,1.82
2019-02-11T00:21:23.195Z,3.75
2019-02-11T00:21:57.043Z,1.90
2019-02-11T00:22:30.823Z,1.50
2019-02-11T00:23:04.462Z,2.98
2019-02-11T00:23:38.089Z,2.65
2019-02-11T00:24:11.730Z,1.92
2019-02-11T00:24:45.449Z,1.87
2019-02-11T00:25:21.392Z,1.80
2019-02-11T00:25:55.149Z,1.82
2019-02-11T00:26:28.758Z,1.80
2019-02-11T00:27:02.604Z,1.72
2019-02-11T00:27:36.224Z,1.87
2019-02-11T00:28:10.021Z,1.50
2019-02-11T00:28:43.544Z,1.82
2019-02-11T00:29:17.171Z,1.42
2019-02-11T00:29:50.819Z,1.40
2019-02-11T00:30:31.421Z,1.25
2019-02-11T00:31:04.945Z,1.17
2019-02-11T00:31:38.560Z,1.32
2019-02-11T00:32:12.340Z,1.72
2019-02-11T00:32:46.181Z,2.15
2019-02-11T00:33:19.875Z,1.50
2019-02-11T00:33:53.593Z,1.70
2019-02-11T00:34:27.390Z,1.70
2019-02-11T00:35:00.977Z,1.85
2019-02-11T00:35:34.559Z,2.10
2019-02-11T00:36:08.365Z,2.70
2019-02-11T00:36:43.649Z,1.90
2019-02-11T00:37:17.317Z,2.25
2019-02-11T00:37:56.426Z,1.57
2019-02-11T00:38:29.923Z,1.80
2019-02-11T00:39:05.283Z,1.47
2019-02-11T00:39:39.000Z,1.45
2019-02-11T00:40:12.841Z,1.20
2019-02-11T00:40:46.562Z,1.62
2019-02-11T00:41:20.269Z,1.60
2019-02-11T00:41:53.890Z,1.37
2019-02-11T00:42:27.461Z,1.50
2019-02-11T00:43:01.037Z,1.42
2019-02-11T00:43:35.227Z,1.42
2019-02-11T00:44:08.814Z,1.20
2019-02-11T00:44:42.772Z,1.65
2019-02-11T00:45:16.501Z,1.40
2019-02-11T00:45:50.096Z,1.20
2019-02-11T00:46:23.931Z,1.57
2019-02-11T00:46:57.564Z,1.50
2019-02-11T00:47:31.249Z,1.50
2019-02-11T00:48:05.008Z,1.50
2019-02-11T00:48:38.753Z,1.10
2019-02-11T00:49:18.313Z,1.80
2019-02-11T00:49:51.809Z,1.60
2019-02-11T00:50:25.455Z,1.60
2019-02-11T00:50:59.253Z,1.57
2019-02-11T00:51:32.780Z,1.52
2019-02-11T00:52:06.442Z,1.35
2019-02-11T00:52:39.998Z,1.70
2019-02-11T00:53:15.994Z,1.62
2019-02-11T00:53:53.041Z,1.17
2019-02-11T00:54:26.830Z,1.27
2019-02-11T00:55:00.544Z,1.67
2019-02-11T00:55:34.519Z,1.27
2019-02-11T00:56:08.336Z,1.55
2019-02-11T00:56:41.982Z,1.55
2019-02-11T00:57:15.528Z,1.07
2019-02-11T00:57:49.098Z,1.47
2019-02-11T00:58:22.774Z,1.45
2019-02-11T00:59:04.005Z,1.27
2019-02-11T00:59:37.653Z,1.30
2019-02-11T01:00:12.653Z,1.72
2019-02-11T01:00:46.189Z,1.22
2019-02-11T01:01:19.877Z,1.20
2019-02-11T01:01:53.558Z,0.98
2019-02-11T01:02:27.864Z,1.02
2019-02-11T01:03:01.662Z,1.30
2019-02-11T01:03:35.220Z,1.85
2019-02-11T01:04:08.729Z,1.87
2019-02-11T01:04:42.208Z,1.30
2019-02-11T01:05:15.791Z,1.45
2019-02-11T01:05:49.203Z,1.20
2019-02-11T01:06:22.692Z,1.77
2019-02-11T01:06:56.184Z,1.62
2019-02-11T01:07:29.707Z,2.50
2019-02-11T01:08:03.205Z,1.42
2019-02-11T01:08:36.701Z,1.40
2019-02-11T01:09:11.000Z,1.57
2019-02-11T01:09:44.509Z,1.30
2019-02-11T01:10:17.996Z,1.20
2019-02-11T01:10:51.568Z,1.32
2019-02-11T01:11:25.060Z,1.30
2019-02-11T01:11:58.542Z,1.40
2019-02-11T01:12:32.025Z,0.98
2019-02-11T01:13:05.520Z,1.37
2019-02-11T01:13:39.019Z,0.90
2019-02-11T01:14:12.583Z,1.32
2019-02-11T01:14:46.169Z,0.82
2019-02-11T01:15:19.701Z,1.40
2019-02-11T01:15:53.296Z,1.30
2019-02-11T01:16:26.880Z,1.75
2019-02-11T01:17:00.422Z,1.37
2019-02-11T01:17:33.925Z,0.88
2019-02-11T01:18:07.412Z,2.62
2019-02-11T01:18:40.865Z,3.70
2019-02-11T01:19:14.382Z,3.65
2019-02-11T01:19:47.884Z,0.80
2019-02-11T01:20:21.552Z,0.78
2019-02-11T01:20:55.028Z,1.00
2019-02-11T01:21:28.539Z,0.90
2019-02-11T01:22:02.053Z,0.88
2019-02-11T01:22:35.578Z,0.93
2019-02-11T01:23:09.064Z,0.70
2019-02-11T01:23:42.692Z,0.78
2019-02-11T01:24:16.256Z,0.70
2019-02-11T01:24:49.743Z,2.90
2019-02-11T01:25:23.236Z,1.82
2019-02-11T01:25:56.803Z,0.90
2019-02-11T01:26:30.348Z,1.50
2019-02-11T01:27:03.916Z,0.80
2019-02-11T01:27:37.357Z,0.93
2019-02-11T01:28:12.628Z,0.80
2019-02-11T01:28:46.160Z,1.40
2019-02-11T01:29:19.625Z,2.35
2019-02-11T01:29:53.228Z,0.70
2019-02-11T01:30:26.783Z,1.87
2019-02-11T01:31:00.288Z,1.10
2019-02-11T01:31:33.853Z,0.82
2019-02-11T01:32:07.329Z,1.07
2019-02-11T01:32:40.852Z,1.62
2019-02-11T01:33:14.360Z,1.00
2019-02-11T01:33:47.771Z,1.22
2019-02-11T01:34:21.743Z,0.82
2019-02-11T01:34:55.259Z,1.22
2019-02-11T01:35:28.688Z,1.30
2019-02-11T01:36:02.255Z,2.27
2019-02-11T01:36:35.687Z,1.70
2019-02-11T01:37:09.709Z,1.00
2019-02-11T01:37:43.983Z,0.70
2019-02-11T01:38:17.450Z,2.05
2019-02-11T01:38:53.573Z,2.25
2019-02-11T01:39:27.060Z,1.02
2019-02-11T01:40:00.480Z,1.22
2019-02-11T01:40:34.011Z,1.00
2019-02-11T01:41:07.636Z,0.93
2019-02-11T01:41:41.111Z,1.00
2019-02-11T01:42:14.609Z,1.20
2019-02-11T01:42:48.093Z,1.27
2019-02-11T01:43:21.711Z,1.77
2019-02-11T01:43:55.169Z,1.25
2019-02-11T01:44:28.734Z,0.80
2019-02-11T01:45:02.631Z,1.17
2019-02-11T01:45:36.174Z,1.45
2019-02-11T01:46:09.675Z,0.70
2019-02-11T01:46:43.285Z,1.10
2019-02-11T01:47:16.688Z,1.07
2019-02-11T01:47:50.118Z,1.10
2019-02-11T01:48:23.596Z,1.22
2019-02-11T01:48:57.081Z,0.80
2019-02-11T01:49:30.614Z,0.88
2019-02-11T01:50:04.565Z,0.70
2019-02-11T01:50:38.030Z,0.80
2019-02-11T01:51:11.453Z,1.00
2019-02-11T01:51:45.144Z,0.70
2019-02-11T01:52:18.661Z,1.60
2019-02-11T01:53:11.294Z,0.88
2019-02-11T01:53:44.795Z,0.75
2019-02-11T01:54:18.436Z,0.70
2019-02-11T01:54:52.237Z,0.80
2019-02-11T01:55:25.794Z,0.62
2019-02-11T01:55:59.463Z,1.05
2019-02-11T01:56:33.318Z,0.85
2019-02-11T01:57:06.824Z,0.80
2019-02-11T01:57:40.340Z,0.85
2019-02-11T01:58:13.818Z,1.02
2019-02-11T01:58:47.319Z,0.95
2019-02-11T01:59:20.807Z,1.32
2019-02-11T01:59:54.422Z,0.70
2019-02-11T02:00:28.056Z,0.98
2019-02-11T02:01:01.569Z,0.70
2019-02-11T02:01:35.073Z,0.90
2019-02-11T02:02:13.583Z,0.72
2019-02-11T02:02:47.104Z,1.32
2019-02-11T02:03:22.955Z,1.30
2019-02-11T02:04:13.257Z,1.20
2019-02-11T02:04:53.706Z,1.32
2019-02-11T02:05:29.320Z,1.75
2019-02-11T02:06:05.903Z,1.10
2019-02-11T02:06:45.091Z,0.90
2019-02-11T02:07:27.873Z,0.93
2019-02-11T02:08:01.427Z,2.72
2019-02-11T02:08:41.560Z,1.02
2019-02-11T02:09:18.906Z,1.75
2019-02-11T02:09:56.053Z,3.05
2019-02-11T02:10:29.576Z,1.30
2019-02-11T02:11:06.477Z,1.07
2019-02-11T02:11:42.986Z,1.40
2019-02-11T02:12:18.507Z,1.12
2019-02-11T02:13:01.332Z,1.40
2019-02-11T02:13:44.665Z,1.55
2019-02-11T02:14:16.089Z,1.17
2019-02-11T02:14:52.785Z,1.40
2019-02-11T02:15:26.345Z,1.57
2019-02-11T02:16:04.300Z,1.52
2019-02-11T02:16:44.521Z,1.70
2019-02-11T02:17:19.797Z,1.77
2019-02-11T02:17:59.610Z,2.58
2019-02-11T02:18:33.316Z,1.10
2019-02-11T02:19:09.992Z,1.22
2019-02-11T02:19:48.054Z,1.25
2019-02-11T02:20:21.480Z,1.65
2019-02-11T02:20:55.445Z,1.57
2019-02-11T02:21:39.180Z,2.55
2019-02-11T02:22:12.723Z,1.17
2019-02-11T02:22:46.198Z,1.50
2019-02-11T02:23:21.955Z,1.95
2019-02-11T02:24:10.000Z,2.35
2019-02-11T02:24:46.284Z,1.27
2019-02-11T02:25:19.616Z,2.33
2019-02-11T02:26:03.092Z,1.12
2019-02-11T02:26:35.220Z,1.77
2019-02-11T02:27:09.865Z,2.08
2019-02-11T02:27:43.443Z,2.30
2019-02-11T02:28:21.567Z,1.20
2019-02-11T02:28:56.508Z,1.80
2019-02-11T02:29:30.017Z,1.17
2019-02-11T02:30:06.747Z,2.20
2019-02-11T02:30:41.259Z,1.55
2019-02-11T02:31:16.043Z,2.62
2019-02-11T02:32:09.148Z,1.45
2019-02-11T02:32:45.904Z,1.55
2019-02-11T02:33:20.068Z,1.50
2019-02-11T02:34:14.896Z,1.25
2019-02-11T02:34:51.341Z,1.10
2019-02-11T02:35:25.134Z,2.83
2019-02-11T02:36:11.628Z,1.27
2019-02-11T02:36:54.529Z,1.50
2019-02-11T02:37:30.839Z,1.12
2019-02-11T02:38:07.397Z,1.20
2019-02-11T02:38:40.940Z,1.00
2019-02-11T02:39:17.317Z,1.10
2019-02-11T02:39:55.513Z,1.55
2019-02-11T02:40:29.173Z,1.50
2019-02-11T02:41:02.596Z,1.00
2019-02-11T02:41:36.073Z,1.00
2019-02-11T02:42:09.574Z,1.10
2019-02-11T02:42:47.700Z,0.85
2019-02-11T02:43:21.217Z,1.72
2019-02-11T02:43:57.260Z,3.72
2019-02-11T02:44:30.917Z,1.12
2019-02-11T02:45:08.016Z,1.20
2019-02-11T02:45:41.514Z,0.90
2019-02-11T02:46:19.991Z,1.32
2019-02-11T02:46:53.556Z,1.25
2019-02-11T02:47:27.042Z,0.82
2019-02-11T02:48:00.790Z,2.30
2019-02-11T02:48:34.421Z,1.00
2019-02-11T02:49:07.952Z,1.32
2019-02-11T02:49:41.441Z,2.72
2019-02-11T02:50:23.938Z,1.40
2019-02-11T02:50:57.421Z,1.80
2019-02-11T02:51:30.901Z,1.02
2019-02-11T02:52:04.442Z,1.77
2019-02-11T02:52:39.023Z,1.10
2019-02-11T02:53:12.613Z,0.95
2019-02-11T02:53:46.184Z,1.10
2019-02-11T02:54:19.695Z,1.37
2019-02-11T02:54:53.213Z,1.10
2019-02-11T02:55:36.183Z,1.72
2019-02-11T02:56:16.425Z,2.52
2019-02-11T02:56:56.436Z,1.30
2019-02-11T02:57:34.814Z,1.22
2019-02-11T02:58:05.676Z,2.87
2019-02-11T02:58:44.820Z,1.00
2019-02-11T02:59:18.373Z,1.60
2019-02-11T02:59:54.678Z,3.15
2019-02-11T03:00:33.153Z,2.00
2019-02-11T03:01:10.509Z,1.67
2019-02-11T03:01:45.817Z,1.80
2019-02-11T03:02:19.662Z,3.00
2019-02-11T03:02:53.343Z,1.75
2019-02-11T03:03:29.036Z,4.42
2019-02-11T03:04:22.034Z,1.47
2019-02-11T03:04:58.599Z,2.85
2019-02-11T03:05:36.221Z,2.70
2019-02-11T03:06:09.730Z,4.10
2019-02-11T03:06:43.248Z,2.92
2019-02-11T03:07:20.318Z,3.02
2019-02-11T03:07:56.872Z,4.15
2019-02-11T03:08:32.067Z,3.27
2019-02-11T03:09:08.333Z,2.80
2019-02-11T03:09:42.580Z,2.72
2019-02-11T03:10:22.651Z,4.33
2019-02-11T03:10:58.761Z,5.35
2019-02-11T03:11:34.705Z,6.33
2019-02-11T03:12:23.848Z,4.40
2019-02-11T03:13:00.438Z,4.83
2019-02-11T03:13:34.847Z,5.65
2019-02-11T03:14:08.348Z,6.12
2019-02-11T03:14:43.580Z,7.97
2019-02-11T03:15:18.522Z,5.40
2019-02-11T03:15:54.382Z,4.42
2019-02-11T03:16:32.020Z,7.08
2019-02-11T03:17:09.215Z,4.30
2019-02-11T03:17:42.762Z,5.70
2019-02-11T03:18:23.794Z,6.03
2019-02-11T03:18:57.320Z,6.20
2019-02-11T03:19:41.563Z,5.85
2019-02-11T03:20:15.231Z,7.45
2019-02-11T03:21:12.518Z,8.70
2019-02-11T03:22:00.482Z,6.87
2019-02-11T03:22:40.960Z,8.48
2019-02-11T03:23:22.496Z,8.13
2019-02-11T03:23:56.918Z,13.70
2019-02-11T03:24:30.991Z,8.95
2019-02-11T03:25:07.723Z,9.68
2019-02-11T03:26:04.018Z,9.40
2019-02-11T03:26:24.879Z,9.38
2019-02-11T03:27:08.753Z,10.80
2019-02-11T03:28:02.377Z,7.70
2019-02-11T03:28:36.265Z,12.75
2019-02-11T03:29:11.628Z,8.93
2019-02-11T03:29:54.153Z,11.43
2019-02-11T03:30:27.679Z,9.15
2019-02-11T03:31:04.666Z,12.82
2019-02-11T03:31:42.997Z,12.18
2019-02-11T03:32:19.301Z,11.15
2019-02-11T03:32:53.129Z,11.95
2019-02-11T03:33:26.711Z,23.02
2019-02-11T03:34:00.253Z,13.38
2019-02-11T03:34:44.103Z,16.12
2019-02-11T03:35:19.722Z,12.93
2019-02-11T03:36:00.515Z,14.07
2019-02-11T03:36:34.018Z,10.95
2019-02-11T03:37:07.580Z,16.40
2019-02-11T03:37:43.166Z,14.00
2019-02-11T03:38:16.952Z,17.35
2019-02-11T03:38:50.725Z,18.20
2019-02-11T03:39:24.312Z,10.08
2019-02-11T03:39:58.793Z,11.63
2019-02-11T03:40:35.300Z,12.00
2019-02-11T03:41:13.767Z,9.28
2019-02-11T03:41:50.627Z,10.05
2019-02-11T03:42:27.168Z,9.08
2019-02-11T03:43:04.054Z,13.28
2019-02-11T03:43:38.369Z,13.75
2019-02-11T03:44:15.108Z,10.35
2019-02-11T03:44:50.987Z,9.65
2019-02-11T03:45:25.270Z,21.37
2019-02-11T03:46:01.067Z,13.38
2019-02-11T03:46:35.040Z,11.63
2019-02-11T03:47:25.730Z,13.13
2019-02-11T03:48:39.376Z,14.35
2019-02-11T03:49:15.045Z,13.15
2019-02-11T03:49:50.560Z,13.38
2019-02-11T03:50:27.033Z,13.93
2019-02-11T03:51:02.624Z,14.98
2019-02-11T03:51:42.320Z,11.65
2019-02-11T03:52:15.816Z,9.33
2019-02-11T03:52:49.298Z,13.08
2019-02-11T03:53:22.918Z,10.80
2019-02-11T03:53:56.417Z,13.62
2019-02-11T03:54:29.904Z,14.43
2019-02-11T03:55:10.606Z,15.80
2019-02-11T03:55:44.713Z,9.25
2019-02-11T03:56:19.872Z,10.25
2019-02-11T03:56:54.011Z,6.60
2019-02-11T03:57:27.536Z,19.27
2019-02-11T03:58:01.023Z,6.90
2019-02-11T03:58:34.746Z,9.50
2019-02-11T03:59:19.218Z,15.08
2019-02-11T04:01:06.149Z,20.32
2019-02-11T04:01:39.751Z,14.43
2019-02-11T04:02:25.961Z,9.33
2019-02-11T04:02:59.592Z,14.73
2019-02-11T04:03:33.191Z,12.73
2019-02-11T04:04:13.082Z,6.08
2019-02-11T04:04:48.353Z,9.50
2019-02-11T04:05:21.929Z,12.65
2019-02-11T04:05:55.791Z,15.23
2019-02-11T04:06:29.521Z,15.03
2019-02-11T04:07:03.030Z,9.78
2019-02-11T04:07:36.573Z,13.18
2019-02-11T04:08:11.900Z,14.05
2019-02-11T04:08:49.270Z,6.53
2019-02-11T04:09:29.014Z,10.82
2019-02-11T04:10:03.834Z,10.28
2019-02-11T04:10:37.398Z,13.00
2019-02-11T04:11:13.854Z,17.60
2019-02-11T04:11:49.586Z,8.55
2019-02-11T04:12:23.128Z,12.55
2019-02-11T04:12:59.732Z,11.70
2019-02-11T04:13:33.226Z,16.05
2019-02-11T04:14:06.743Z,11.45
2019-02-11T04:14:44.356Z,8.73
2019-02-11T04:15:17.957Z,8.45
2019-02-11T04:15:56.825Z,15.10
2019-02-11T04:16:30.618Z,8.83
2019-02-11T04:17:10.787Z,13.65
2019-02-11T04:17:47.910Z,5.35
2019-02-11T04:18:23.978Z,9.55
2019-02-11T04:18:57.650Z,12.78
2019-02-11T04:19:31.152Z,7.08
2019-02-11T04:20:07.476Z,8.00
2019-02-11T04:20:43.719Z,6.75
2019-02-11T04:21:17.299Z,9.93
2019-02-11T04:22:04.290Z,9.70
2019-02-11T04:22:37.825Z,10.20
2019-02-11T04:23:15.115Z,15.45
2019-02-11T04:24:01.571Z,8.73
2019-02-11T04:24:42.624Z,12.25
2019-02-11T04:25:22.779Z,8.38
2019-02-11T04:25:58.311Z,11.73
2019-02-11T04:26:34.310Z,15.35
2019-02-11T04:27:13.803Z,13.72
2019-02-11T04:27:51.585Z,10.55
2019-02-11T04:28:22.512Z,8.43
2019-02-11T04:28:56.120Z,6.85
2019-02-11T04:29:29.657Z,11.60
2019-02-11T04:30:07.190Z,8.13
2019-02-11T04:30:40.908Z,19.73
2019-02-11T04:31:15.621Z,9.08
2019-02-11T04:31:49.196Z,8.45
2019-02-11T04:32:22.853Z,12.73
2019-02-11T04:33:00.972Z,17.15
2019-02-11T04:33:34.506Z,10.95
2019-02-11T04:34:09.427Z,8.73
2019-02-11T04:34:43.053Z,6.33
2019-02-11T04:35:16.819Z,6.25
2019-02-11T04:35:53.654Z,9.60
2019-02-11T04:36:27.224Z,11.28
2019-02-11T04:37:02.797Z,16.90
2019-02-11T04:37:36.402Z,8.43
2019-02-11T04:38:10.055Z,11.57
2019-02-11T04:38:45.861Z,7.62
2019-02-11T04:39:19.690Z,4.28
2019-02-11T04:39:53.184Z,12.50
2019-02-11T04:40:29.424Z,10.95
2019-02-11T04:41:02.845Z,4.47
2019-02-11T04:41:36.410Z,8.20
2019-02-11T04:42:12.676Z,7.70
2019-02-11T04:42:46.212Z,6.20
2019-02-11T04:43:20.314Z,6.97
2019-02-11T04:43:59.805Z,8.73
2019-02-11T04:44:34.251Z,7.15
2019-02-11T04:45:08.569Z,9.43
2019-02-11T04:45:42.210Z,13.30
2019-02-11T04:46:17.690Z,5.22
2019-02-11T04:46:51.244Z,8.33
2019-02-11T04:47:24.849Z,8.80
2019-02-11T04:47:59.042Z,13.65
2019-02-11T04:48:32.493Z,6.25
2019-02-11T04:49:05.936Z,8.23
2019-02-11T04:49:40.635Z,10.70
2019-02-11T04:50:16.109Z,14.75
2019-02-11T04:50:49.549Z,6.08
2019-02-11T04:51:29.923Z,9.48
2019-02-11T04:52:05.388Z,6.53
2019-02-11T04:52:38.981Z,9.60
2019-02-11T04:53:12.440Z,5.90
2019-02-11T04:53:47.471Z,10.25
2019-02-11T04:54:20.993Z,10.82
2019-02-11T04:54:54.499Z,8.48
2019-02-11T04:55:31.258Z,9.63
2019-02-11T04:56:04.787Z,8.45
2019-02-11T04:56:43.806Z,9.03
2019-02-11T04:57:17.353Z,3.58
2019-02-11T04:57:57.919Z,6.05
2019-02-11T04:58:36.031Z,12.40
2019-02-11T04:59:09.656Z,8.65
2019-02-11T04:59:44.421Z,7.47
2019-02-11T05:00:17.960Z,10.28
2019-02-11T05:00:51.649Z,4.72
2019-02-11T05:01:29.961Z,4.70
2019-02-11T05:02:03.556Z,14.98
2019-02-11T05:02:39.997Z,3.90
2019-02-11T05:03:13.699Z,6.08
2019-02-11T05:03:47.139Z,7.42
2019-02-11T05:04:31.286Z,3.62
2019-02-11T05:05:10.789Z,9.05
2019-02-11T05:05:47.369Z,7.75
2019-02-11T05:06:20.951Z,8.68
2019-02-11T05:06:56.914Z,4.53
2019-02-11T05:07:39.432Z,5.72
2019-02-11T05:08:13.108Z,9.78
2019-02-11T05:08:51.200Z,5.03
2019-02-11T05:09:24.803Z,8.95
2019-02-11T05:10:04.381Z,7.90
2019-02-11T05:10:42.777Z,9.85
2019-02-11T05:11:16.568Z,10.08
2019-02-11T05:11:53.106Z,6.53
2019-02-11T05:12:26.771Z,9.58
2019-02-11T05:13:00.353Z,11.05
2019-02-11T05:13:36.196Z,8.13
2019-02-11T05:14:10.330Z,10.32
2019-02-11T05:14:45.942Z,11.28
2019-02-11T05:15:24.110Z,16.45
2019-02-11T05:16:00.560Z,10.10
2019-02-11T05:16:34.187Z,14.85
2019-02-11T05:17:09.993Z,6.55
2019-02-11T05:17:46.361Z,10.72
2019-02-11T05:18:27.234Z,11.70
2019-02-11T05:19:06.888Z,11.38
2019-02-11T05:19:40.453Z,12.93
2019-02-11T05:20:18.544Z,9.35
2019-02-11T05:20:52.040Z,6.90
2019-02-11T05:21:30.114Z,9.80
2019-02-11T05:22:03.662Z,9.90
2019-02-11T05:22:40.135Z,12.30
2019-02-11T05:23:13.805Z,12.58
2019-02-11T05:23:48.385Z,11.55
2019-02-11T05:24:21.976Z,11.70
2019-02-11T05:24:55.529Z,12.98
2019-02-11T05:25:31.512Z,11.38
2019-02-11T05:26:06.334Z,11.63
2019-02-11T05:26:39.890Z,10.43
2019-02-11T05:27:16.592Z,9.13
2019-02-11T05:27:50.234Z,5.45
2019-02-11T05:28:30.225Z,9.73
2019-02-11T05:29:07.889Z,10.63
2019-02-11T05:29:48.685Z,9.20
2019-02-11T05:30:22.251Z,7.95
2019-02-11T05:30:55.982Z,10.03
2019-02-11T05:31:29.550Z,9.93
2019-02-11T05:32:14.864Z,8.13
2019-02-11T05:32:48.378Z,11.97
2019-02-11T05:33:22.470Z,19.50
2019-02-11T05:33:56.682Z,9.38
2019-02-11T05:34:30.561Z,8.80
2019-02-11T05:35:09.409Z,11.88
2019-02-11T05:35:43.266Z,5.22
2019-02-11T05:36:21.304Z,11.60
2019-02-11T05:36:56.681Z,6.17
2019-02-11T05:37:38.267Z,7.05
2019-02-11T05:38:12.048Z,11.33
2019-02-11T05:38:45.771Z,10.00
2019-02-11T05:39:21.917Z,8.03
2019-02-11T05:39:58.128Z,8.55
2019-02-11T05:40:33.168Z,10.95
2019-02-11T05:41:06.806Z,19.10
2019-02-11T05:41:40.400Z,10.72
2019-02-11T05:42:14.122Z,6.15
2019-02-11T05:42:51.121Z,10.45
2019-02-11T05:43:27.367Z,12.65
2019-02-11T05:44:01.201Z,13.08
2019-02-11T05:44:37.494Z,13.62
2019-02-11T05:45:11.238Z,9.70
2019-02-11T05:45:44.920Z,8.43
2019-02-11T05:46:19.862Z,12.13
2019-02-11T05:46:53.272Z,8.20
2019-02-11T05:47:27.131Z,9.95
2019-02-11T05:48:00.746Z,9.85
2019-02-11T05:48:41.616Z,19.17
2019-02-11T05:49:19.725Z,10.23
2019-02-11T05:50:00.722Z,9.03
2019-02-11T05:50:40.249Z,9.50
2019-02-11T05:51:13.974Z,10.75
2019-02-11T05:51:47.421Z,14.25
2019-02-11T05:52:20.945Z,10.20
2019-02-11T05:53:00.435Z,11.10
2019-02-11T05:53:38.793Z,12.50
2019-02-11T05:54:23.138Z,8.23
2019-02-11T05:55:03.896Z,5.17
2019-02-11T05:55:37.483Z,11.15
2019-02-11T05:56:13.326Z,9.08
2019-02-11T05:56:48.899Z,13.65
2019-02-11T05:57:23.088Z,13.80
2019-02-11T05:57:56.597Z,9.75
2019-02-11T05:58:32.932Z,8.68
2019-02-11T05:59:08.547Z,12.13
2019-02-11T05:59:42.032Z,9.33
2019-02-11T06:00:17.278Z,17.27
2019-02-11T06:00:51.015Z,11.50
2019-02-11T06:01:27.812Z,6.85
2019-02-11T06:02:03.287Z,15.28
2019-02-11T06:02:41.962Z,11.88
2019-02-11T06:03:15.762Z,10.30
2019-02-11T06:03:57.250Z,5.95
2019-02-11T06:04:30.729Z,10.05
2019-02-11T06:05:04.816Z,10.00
2019-02-11T06:05:55.750Z,6.92
2019-02-11T06:06:31.959Z,9.33
2019-02-11T06:07:09.670Z,10.60
2019-02-11T06:07:43.304Z,7.75
2019-02-11T06:08:16.863Z,5.83
2019-02-11T06:09:10.909Z,10.25
2019-02-11T06:09:49.637Z,11.15
2019-02-11T06:10:24.625Z,13.25
2019-02-11T06:10:59.658Z,12.30
2019-02-11T06:11:33.263Z,15.28
2019-02-11T06:12:10.189Z,9.08
2019-02-11T06:12:43.783Z,10.30
2019-02-11T06:13:21.625Z,9.83
2019-02-11T06:13:55.658Z,15.95
2019-02-11T06:14:31.073Z,18.55
2019-02-11T06:15:05.306Z,8.83
2019-02-11T06:15:45.998Z,11.38
2019-02-11T06:16:34.357Z,12.43
2019-02-11T06:17:07.957Z,8.18
2019-02-11T06:17:41.569Z,6.35
2019-02-11T06:18:18.136Z,3.45
2019-02-11T06:18:51.769Z,11.85
2019-02-11T06:19:25.251Z,8.53
2019-02-11T06:20:00.504Z,9.18
2019-02-11T06:20:36.987Z,8.50
2019-02-11T06:21:11.094Z,5.03
2019-02-11T06:21:44.728Z,9.33
2019-02-11T06:23:11.437Z,12.73
2019-02-11T06:23:29.635Z,7.67
2019-02-11T06:23:44.940Z,6.72
2019-02-11T06:24:18.461Z,8.28
2019-02-11T06:24:53.672Z,7.08
2019-02-11T06:25:30.354Z,19.10
2019-02-11T06:26:10.570Z,11.03
2019-02-11T06:26:44.322Z,3.70
2019-02-11T06:27:25.343Z,7.30
2019-02-11T06:28:03.948Z,8.30
2019-02-11T06:28:40.928Z,11.63
2019-02-11T06:29:14.708Z,4.87
2019-02-11T06:29:49.721Z,9.33
2019-02-11T06:30:29.109Z,8.08
2019-02-11T06:31:05.740Z,10.30
2019-02-11T06:31:50.326Z,11.10
2019-02-11T06:32:23.824Z,9.00
2019-02-11T06:32:57.379Z,6.42
2019-02-11T06:33:31.012Z,11.12
2019-02-11T06:34:05.915Z,11.50
2019-02-11T06:34:39.552Z,10.35
2019-02-11T06:35:22.906Z,4.42
2019-02-11T06:35:58.739Z,13.00
2019-02-11T06:36:32.658Z,6.92
2019-02-11T06:37:06.258Z,13.83
2019-02-11T06:37:43.658Z,5.53
2019-02-11T06:38:17.960Z,6.28
2019-02-11T06:38:55.279Z,7.25
2019-02-11T06:39:35.303Z,8.03
2019-02-11T06:40:09.068Z,8.83
2019-02-11T06:40:46.954Z,11.80
2019-02-11T06:41:21.120Z,10.43
2019-02-11T06:42:06.676Z,10.88
2019-02-11T06:42:40.238Z,8.28
2019-02-11T06:43:17.972Z,8.05
2019-02-11T06:43:51.736Z,6.62
2019-02-11T06:44:34.761Z,9.38
2019-02-11T06:45:15.907Z,10.18
2019-02-11T06:45:50.996Z,9.85
2019-02-11T06:46:24.557Z,8.58
2019-02-11T06:47:24.878Z,7.70
2019-02-11T06:48:01.881Z,6.80
2019-02-11T06:48:41.469Z,8.30
2019-02-11T06:49:28.914Z,6.05
2019-02-11T06:50:07.644Z,11.68
2019-02-11T06:50:44.201Z,9.03
2019-02-11T06:51:21.174Z,17.20
2019-02-11T06:52:17.107Z,20.90
2019-02-11T06:52:56.026Z,8.68
2019-02-11T06:53:32.370Z,8.08
2019-02-11T06:54:05.962Z,11.33
2019-02-11T06:54:39.812Z,13.80
2019-02-11T06:55:13.719Z,6.78
2019-02-11T06:55:47.438Z,11.10
2019-02-11T06:56:27.141Z,10.10
2019-02-11T06:56:59.712Z,11.38
2019-02-11T06:57:33.283Z,5.85
2019-02-11T06:58:09.860Z,6.10
2019-02-11T06:58:44.572Z,11.70
2019-02-11T06:59:19.885Z,7.35
2019-02-11T06:59:53.473Z,6.55
2019-02-11T07:00:26.981Z,9.15
2019-02-11T07:01:04.668Z,6.80
2019-02-11T07:01:38.208Z,6.50
2019-02-11T07:02:14.628Z,8.98
2019-02-11T07:02:48.231Z,12.15
2019-02-11T07:03:21.816Z,6.50
2019-02-11T07:03:57.169Z,8.35
2019-02-11T07:04:36.973Z,12.37
2019-02-11T07:05:10.601Z,6.40
2019-02-11T07:05:45.041Z,9.33
2019-02-11T07:06:29.949Z,6.85
2019-02-11T07:07:03.795Z,10.50
2019-02-11T07:07:39.046Z,9.05
2019-02-11T07:08:12.678Z,14.87
2019-02-11T07:08:46.301Z,6.85
2019-02-11T07:09:19.831Z,9.30
2019-02-11T07:09:53.329Z,8.43
2019-02-11T07:10:26.902Z,7.97
2019-02-11T07:11:03.258Z,9.40
2019-02-11T07:11:37.062Z,8.10
2019-02-11T07:12:10.641Z,9.18
2019-02-11T07:12:45.675Z,11.93
2019-02-11T07:13:20.610Z,6.92
2019-02-11T07:13:54.537Z,8.90
2019-02-11T07:14:28.162Z,5.25
2019-02-11T07:15:01.802Z,11.33
2019-02-11T07:15:45.509Z,8.20
2019-02-11T07:16:19.133Z,8.85
2019-02-11T07:16:52.909Z,9.68
2019-02-11T07:17:26.422Z,6.78
2019-02-11T07:17:59.949Z,11.30
2019-02-11T07:18:33.487Z,12.47
2019-02-11T07:19:06.998Z,9.15
2019-02-11T07:19:40.518Z,8.08
2019-02-11T07:20:14.226Z,7.65
2019-02-11T07:20:47.737Z,8.90
2019-02-11T07:21:21.383Z,5.20
2019-02-11T07:21:55.021Z,13.10
2019-02-11T07:22:28.869Z,11.68
2019-02-11T07:23:02.460Z,9.63
2019-02-11T07:23:36.022Z,5.55
2019-02-11T07:24:09.613Z,8.88
2019-02-11T07:24:43.140Z,6.33
2019-02-11T07:25:16.810Z,4.90
2019-02-11T07:25:50.433Z,8.00
2019-02-11T07:26:23.980Z,7.28
2019-02-11T07:26:57.517Z,11.30
2019-02-11T07:27:31.008Z,12.05
2019-02-11T07:28:08.680Z,6.78
2019-02-11T07:28:42.325Z,7.67
2019-02-11T07:29:15.891Z,8.30
2019-02-11T07:29:49.625Z,6.70
2019-02-11T07:30:23.214Z,5.95
2019-02-11T07:30:56.720Z,12.30
2019-02-11T07:31:30.327Z,8.95
2019-02-11T07:32:03.892Z,12.80
2019-02-11T07:32:37.397Z,8.73
2019-02-11T07:33:10.874Z,13.08
2019-02-11T07:33:44.461Z,9.08
2019-02-11T07:34:17.946Z,12.82
2019-02-11T07:34:51.508Z,4.90
2019-02-11T07:35:25.064Z,12.53
2019-02-11T07:35:58.901Z,9.28
2019-02-11T07:36:32.606Z,8.45
2019-02-11T07:37:06.421Z,12.80
2019-02-11T07:37:40.165Z,7.22
2019-02-11T07:38:13.873Z,6.80
2019-02-11T07:38:47.455Z,4.47
2019-02-11T07:39:21.156Z,8.35
2019-02-11T07:39:54.912Z,12.33
2019-02-11T07:40:28.604Z,7.95
2019-02-11T07:41:02.131Z,8.28
2019-02-11T07:41:41.201Z,4.47
2019-02-11T07:42:26.485Z,11.80
2019-02-11T07:43:04.713Z,10.95
2019-02-11T07:43:43.241Z,5.85
2019-02-11T07:44:21.162Z,8.53
2019-02-11T07:44:57.244Z,6.30
2019-02-11T07:45:36.633Z,9.23
2019-02-11T07:46:29.265Z,3.87
2019-02-11T07:47:03.608Z,5.47
2019-02-11T07:47:37.143Z,5.92
2019-02-11T07:48:10.758Z,6.95
2019-02-11T07:48:44.283Z,3.58
2019-02-11T07:49:17.735Z,5.55
2019-02-11T07:49:51.601Z,8.05
2019-02-11T07:50:25.087Z,7.47
2019-02-11T07:50:58.620Z,8.35
2019-02-11T07:51:32.151Z,7.62
2019-02-11T07:52:05.618Z,4.17
2019-02-11T07:52:39.356Z,3.83
2019-02-11T07:53:13.018Z,8.15